Warroad, Minnesota
Current Conditions -  °F | °C
As of 6:34 AM on Tuesday 27 Jan 2015 (Local Time) from KRRT Reporting Station
Haze Haze  
Wind Chill: 13°   Ceiling: 100
Heat Index: 21°   Visibility: 1.2mi
Dew Point: 18°   Wind: 7mph
Humidity: 86%   Direction: 200°SSW
Pressure: 30.05"   Gusts: NA
Location:  48.91°N, 95.32°W
Report Text: KRRT 271234Z AUTO 20006KT 1 1/4SM BR OVC001 M06/M08 A3005 RMK AO2
Loading
Personal Weather Stations






























Interactive Weather Map New forecast layout! Learn more

10-Day Weather Forecast

Advertisements
Track Severe Weather on mobile